KRWL/RWL METAR and TAF weather

Enter ICAO airport designator
Station Type Date Time Source
KRWL METAR 2018/12/18 18:53 UTC NOAA

KRWL 181853Z AUTO 24019G26KT 10SM CLR 03/M04 A3006 RMK AO2 PK WND 23027/1758 SLP185 T00281039


Station Type Date Time Source
KRWL Decoded METAR 2018/12/18 18:53 UTC NOAA

RAWLINS MUNICIPAL AIRPORT, WY, United States (KRWL) 41-48N 107-12W
Dec 18, 2018 - 01:53 PM EST / 2018.12.18 1853 UTC
Wind: from the WSW (240 degrees) at 22 MPH (19 KT) gusting to 30 MPH (26 KT):0
Visibility: 10 mile(s):0
Sky conditions: clear
Temperature: 37.0 F (2.8 C)
Dew Point: 25.0 F (-3.9 C)
Relative Humidity: 61%
Pressure (altimeter): 30.06 in. Hg (1017 hPa)
ob: KRWL 181853Z AUTO 24019G26KT 10SM CLR 03/M04 A3006 RMK AO2 PK WND 23027/1758 SLP185 T00281039
cycle: 19

Station Type Date Time Source
KRWL TAF 2018/12/18 18:24 UTC NOAA

TAF KRWL 181723Z 1818/1918 24020G30KT P6SM FEW170
FM190000 25024G35KT P6SM BKN050 OVC100
FM191000 25030G40KT P6SM BKN090 WS020/28045KT
FM191300 26029G41KT P6SM BKN090


Example: see airport list